sensor_id;sensor_type;location;lat;lon;timestamp;pressure;altitude;pressure_sealevel;temperature;humidity
54900;BME280;40801;41.924;25.562;2024-01-15T00:02:06;99145.38;;;-1.57;67.75
54900;BME280;40801;41.924;25.562;2024-01-15T00:04:37;99139.88;;;-1.55;67.21
54900;BME280;40801;41.924;25.562;2024-01-15T00:07:03;99140.91;;;-1.56;67.80
54900;BME280;40801;41.924;25.562;2024-01-15T00:09:28;99141.50;;;-1.66;67.91
54900;BME280;40801;41.924;25.562;2024-01-15T00:11:53;99143.00;;;-1.70;68.17
54900;BME280;40801;41.924;25.562;2024-01-15T00:14:19;99150.13;;;-1.70;68.01
54900;BME280;40801;41.924;25.562;2024-01-15T00:16:45;99145.97;;;-1.78;68.54
54900;BME280;40801;41.924;25.562;2024-01-15T00:19:11;99139.09;;;-1.67;67.92
54900;BME280;40801;41.924;25.562;2024-01-15T00:21:36;99139.56;;;-1.70;67.79
54900;BME280;40801;41.924;25.562;2024-01-15T00:24:01;99137.47;;;-1.80;68.50
54900;BME280;40801;41.924;25.562;2024-01-15T00:26:27;99141.47;;;-1.77;68.41
54900;BME280;40801;41.924;25.562;2024-01-15T00:28:52;99138.84;;;-1.77;68.74
54900;BME280;40801;41.924;25.562;2024-01-15T00:31:17;99147.00;;;-1.79;68.14
54900;BME280;40801;41.924;25.562;2024-01-15T00:33:43;99153.44;;;-1.63;67.24
54900;BME280;40801;41.924;25.562;2024-01-15T00:36:08;99144.94;;;-1.65;67.23
54900;BME280;40801;41.924;25.562;2024-01-15T00:38:34;99139.41;;;-1.75;67.91
54900;BME280;40801;41.924;25.562;2024-01-15T00:40:59;99134.72;;;-1.85;67.88
54900;BME280;40801;41.924;25.562;2024-01-15T00:43:25;99131.72;;;-1.89;68.11
54900;BME280;40801;41.924;25.562;2024-01-15T00:45:50;99134.38;;;-1.89;68.18
54900;BME280;40801;41.924;25.562;2024-01-15T00:48:15;99133.91;;;-1.85;68.18
54900;BME280;40801;41.924;25.562;2024-01-15T00:50:41;99140.56;;;-1.83;67.94
54900;BME280;40801;41.924;25.562;2024-01-15T00:53:06;99134.59;;;-1.90;67.73
54900;BME280;40801;41.924;25.562;2024-01-15T00:55:31;99137.72;;;-1.93;67.43
54900;BME280;40801;41.924;25.562;2024-01-15T00:57:57;99119.44;;;-1.95;67.62
54900;BME280;40801;41.924;25.562;2024-01-15T01:00:22;99131.50;;;-1.87;67.31
54900;BME280;40801;41.924;25.562;2024-01-15T01:02:48;99126.34;;;-1.94;67.48
54900;BME280;40801;41.924;25.562;2024-01-15T01:05:13;99124.94;;;-1.84;66.96
54900;BME280;40801;41.924;25.562;2024-01-15T01:07:38;99127.00;;;-1.75;66.44
54900;BME280;40801;41.924;25.562;2024-01-15T01:10:04;99121.72;;;-1.87;67.35
54900;BME280;40801;41.924;25.562;2024-01-15T01:12:30;99129.22;;;-1.95;68.16
54900;BME280;40801;41.924;25.562;2024-01-15T01:14:55;99119.22;;;-1.93;67.95
54900;BME280;40801;41.924;25.562;2024-01-15T01:17:21;99119.31;;;-1.88;67.27
54900;BME280;40801;41.924;25.562;2024-01-15T01:19:47;99116.31;;;-1.80;67.51
54900;BME280;40801;41.924;25.562;2024-01-15T01:22:12;99117.84;;;-1.96;68.32
54900;BME280;40801;41.924;25.562;2024-01-15T01:24:38;99119.88;;;-1.86;67.33
54900;BME280;40801;41.924;25.562;2024-01-15T01:27:03;99128.25;;;-2.12;68.34
54900;BME280;40801;41.924;25.562;2024-01-15T01:29:29;99106.69;;;-2.21;68.71
54900;BME280;40801;41.924;25.562;2024-01-15T01:31:54;99119.31;;;-2.11;68.19
54900;BME280;40801;41.924;25.562;2024-01-15T01:34:19;99112.88;;;-2.15;68.60
54900;BME280;40801;41.924;25.562;2024-01-15T01:36:45;99107.25;;;-2.19;68.72
54900;BME280;40801;41.924;25.562;2024-01-15T01:39:10;99099.66;;;-2.15;68.25
54900;BME280;40801;41.924;25.562;2024-01-15T01:41:36;99103.91;;;-2.14;68.26
54900;BME280;40801;41.924;25.562;2024-01-15T01:44:01;99114.47;;;-2.26;68.22
54900;BME280;40801;41.924;25.562;2024-01-15T01:46:27;99113.09;;;-2.17;67.87
54900;BME280;40801;41.924;25.562;2024-01-15T01:48:56;99110.13;;;-2.21;67.58
54900;BME280;40801;41.924;25.562;2024-01-15T01:51:24;99122.50;;;-2.33;68.23
54900;BME280;40801;41.924;25.562;2024-01-15T01:53:50;99121.91;;;-2.35;67.69
54900;BME280;40801;41.924;25.562;2024-01-15T01:56:17;99123.66;;;-2.29;67.44
54900;BME280;40801;41.924;25.562;2024-01-15T01:58:43;99113.06;;;-2.40;68.15
54900;BME280;40801;41.924;25.562;2024-01-15T02:01:10;99110.66;;;-2.42;68.02
54900;BME280;40801;41.924;25.562;2024-01-15T02:03:37;99112.38;;;-2.36;67.91
54900;BME280;40801;41.924;25.562;2024-01-15T02:06:02;99108.00;;;-2.42;68.67
54900;BME280;40801;41.924;25.562;2024-01-15T02:08:28;99105.59;;;-2.43;68.39
54900;BME280;40801;41.924;25.562;2024-01-15T02:10:54;99107.66;;;-2.45;68.46
54900;BME280;40801;41.924;25.562;2024-01-15T02:13:20;99100.75;;;-2.58;68.66
54900;BME280;40801;41.924;25.562;2024-01-15T02:15:45;99097.22;;;-2.52;69.02
54900;BME280;40801;41.924;25.562;2024-01-15T02:18:11;99088.38;;;-2.58;68.87
54900;BME280;40801;41.924;25.562;2024-01-15T02:20:36;99090.56;;;-2.55;69.03
54900;BME280;40801;41.924;25.562;2024-01-15T02:23:08;99099.28;;;-2.54;69.44
54900;BME280;40801;41.924;25.562;2024-01-15T02:25:37;99095.97;;;-2.50;67.89
54900;BME280;40801;41.924;25.562;2024-01-15T02:28:03;99092.84;;;-2.46;68.46
54900;BME280;40801;41.924;25.562;2024-01-15T02:30:29;99088.59;;;-2.47;67.73
54900;BME280;40801;41.924;25.562;2024-01-15T02:32:55;99086.53;;;-2.45;68.95
54900;BME280;40801;41.924;25.562;2024-01-15T02:35:20;99084.13;;;-2.47;68.50
54900;BME280;40801;41.924;25.562;2024-01-15T02:37:46;99091.25;;;-2.36;67.88
54900;BME280;40801;41.924;25.562;2024-01-15T02:40:11;99094.25;;;-2.44;68.67
54900;BME280;40801;41.924;25.562;2024-01-15T02:42:36;99092.28;;;-2.48;68.56
54900;BME280;40801;41.924;25.562;2024-01-15T02:45:02;99088.03;;;-2.50;68.75
54900;BME280;40801;41.924;25.562;2024-01-15T02:47:28;99086.88;;;-2.54;68.79
54900;BME280;40801;41.924;25.562;2024-01-15T02:49:53;99091.25;;;-2.47;68.45
54900;BME280;40801;41.924;25.562;2024-01-15T02:52:19;99086.13;;;-2.31;67.12
54900;BME280;40801;41.924;25.562;2024-01-15T02:54:44;99080.16;;;-2.26;66.65
54900;BME280;40801;41.924;25.562;2024-01-15T02:57:09;99077.03;;;-2.35;67.37
54900;BME280;40801;41.924;25.562;2024-01-15T02:59:35;99093.31;;;-2.50;67.81
54900;BME280;40801;41.924;25.562;2024-01-15T03:02:00;99083.44;;;-2.54;68.07
54900;BME280;40801;41.924;25.562;2024-01-15T03:04:26;99086.16;;;-2.61;68.52
54900;BME280;40801;41.924;25.562;2024-01-15T03:06:51;99087.53;;;-2.70;68.54
54900;BME280;40801;41.924;25.562;2024-01-15T03:09:16;99079.72;;;-2.65;68.08
54900;BME280;40801;41.924;25.562;2024-01-15T03:11:42;99070.25;;;-2.54;67.37
54900;BME280;40801;41.924;25.562;2024-01-15T03:14:07;99078.56;;;-2.69;68.61
54900;BME280;40801;41.924;25.562;2024-01-15T03:16:33;99082.59;;;-2.66;68.27
54900;BME280;40801;41.924;25.562;2024-01-15T03:18:58;99079.59;;;-2.82;68.98
54900;BME280;40801;41.924;25.562;2024-01-15T03:21:24;99079.25;;;-2.85;68.85
54900;BME280;40801;41.924;25.562;2024-01-15T03:23:49;99081.81;;;-2.97;69.37
54900;BME280;40801;41.924;25.562;2024-01-15T03:26:14;99078.97;;;-2.95;69.22
54900;BME280;40801;41.924;25.562;2024-01-15T03:28:40;99070.09;;;-3.01;69.27
54900;BME280;40801;41.924;25.562;2024-01-15T03:31:07;99081.94;;;-2.92;68.89
54900;BME280;40801;41.924;25.562;2024-01-15T03:33:32;99078.28;;;-2.91;68.83
54900;BME280;40801;41.924;25.562;2024-01-15T03:35:58;99077.69;;;-2.93;68.82
54900;BME280;40801;41.924;25.562;2024-01-15T03:38:24;99071.03;;;-2.95;68.57
54900;BME280;40801;41.924;25.562;2024-01-15T03:40:49;99076.91;;;-2.93;68.74
54900;BME280;40801;41.924;25.562;2024-01-15T03:43:14;99066.66;;;-3.01;68.48
54900;BME280;40801;41.924;25.562;2024-01-15T03:45:40;99064.72;;;-3.06;68.74
54900;BME280;40801;41.924;25.562;2024-01-15T03:48:05;99063.91;;;-3.06;69.05
54900;BME280;40801;41.924;25.562;2024-01-15T03:50:31;99075.06;;;-2.93;68.47
54900;BME280;40801;41.924;25.562;2024-01-15T03:52:56;99080.97;;;-2.79;66.71
54900;BME280;40801;41.924;25.562;2024-01-15T03:55:22;99080.38;;;-2.81;67.88
54900;BME280;40801;41.924;25.562;2024-01-15T03:57:47;99072.03;;;-2.78;67.52
54900;BME280;40801;41.924;25.562;2024-01-15T04:00:14;99071.78;;;-2.76;67.41
54900;BME280;40801;41.924;25.562;2024-01-15T04:02:42;99075.00;;;-2.74;68.08
54900;BME280;40801;41.924;25.562;2024-01-15T04:05:07;99076.94;;;-2.82;68.35
54900;BME280;40801;41.924;25.562;2024-01-15T04:07:33;99084.28;;;-2.84;68.50
54900;BME280;40801;41.924;25.562;2024-01-15T04:09:58;99084.75;;;-2.87;68.81
54900;BME280;40801;41.924;25.562;2024-01-15T04:12:24;99078.28;;;-2.91;69.03
54900;BME280;40801;41.924;25.562;2024-01-15T04:14:50;99080.75;;;-2.77;67.79
54900;BME280;40801;41.924;25.562;2024-01-15T04:17:15;99081.56;;;-2.65;67.46
54900;BME280;40801;41.924;25.562;2024-01-15T04:19:43;99083.97;;;-2.75;67.99
54900;BME280;40801;41.924;25.562;2024-01-15T04:22:09;99078.09;;;-2.77;68.01
54900;BME280;40801;41.924;25.562;2024-01-15T04:24:34;99082.56;;;-2.78;67.95
54900;BME280;40801;41.924;25.562;2024-01-15T04:27:00;99078.91;;;-2.77;68.36
54900;BME280;40801;41.924;25.562;2024-01-15T04:29:26;99075.69;;;-2.79;68.60
54900;BME280;40801;41.924;25.562;2024-01-15T04:31:52;99077.31;;;-2.78;68.58
54900;BME280;40801;41.924;25.562;2024-01-15T04:34:18;99078.88;;;-2.89;68.95
54900;BME280;40801;41.924;25.562;2024-01-15T04:36:43;99072.28;;;-2.98;68.89
54900;BME280;40801;41.924;25.562;2024-01-15T04:39:08;99074.19;;;-2.87;68.83
54900;BME280;40801;41.924;25.562;2024-01-15T04:41:34;99071.25;;;-2.97;68.70
54900;BME280;40801;41.924;25.562;2024-01-15T04:43:59;99072.63;;;-3.06;68.40
54900;BME280;40801;41.924;25.562;2024-01-15T04:46:26;99078.00;;;-3.13;68.63
54900;BME280;40801;41.924;25.562;2024-01-15T04:48:52;99068.53;;;-3.20;68.73
54900;BME280;40801;41.924;25.562;2024-01-15T04:51:17;99070.88;;;-3.12;68.29
54900;BME280;40801;41.924;25.562;2024-01-15T04:53:44;99064.44;;;-3.16;68.61
54900;BME280;40801;41.924;25.562;2024-01-15T04:56:10;99056.03;;;-3.25;69.28
54900;BME280;40801;41.924;25.562;2024-01-15T04:58:35;99049.84;;;-3.19;68.47
54900;BME280;40801;41.924;25.562;2024-01-15T05:01:00;99065.50;;;-3.05;67.37
54900;BME280;40801;41.924;25.562;2024-01-15T05:03:26;99055.41;;;-3.08;68.47
54900;BME280;40801;41.924;25.562;2024-01-15T05:05:51;99057.47;;;-3.10;68.63
54900;BME280;40801;41.924;25.562;2024-01-15T05:08:16;99064.34;;;-3.09;68.46
54900;BME280;40801;41.924;25.562;2024-01-15T05:10:42;99067.34;;;-3.06;68.80
54900;BME280;40801;41.924;25.562;2024-01-15T05:13:07;99067.69;;;-3.02;68.90
54900;BME280;40801;41.924;25.562;2024-01-15T05:15:33;99078.69;;;-3.05;68.99
54900;BME280;40801;41.924;25.562;2024-01-15T05:17:58;99080.97;;;-3.09;68.64
54900;BME280;40801;41.924;25.562;2024-01-15T05:20:23;99060.91;;;-3.10;68.77
54900;BME280;40801;41.924;25.562;2024-01-15T05:22:49;99058.16;;;-3.15;69.29
54900;BME280;40801;41.924;25.562;2024-01-15T05:25:14;99052.53;;;-3.07;68.75
54900;BME280;40801;41.924;25.562;2024-01-15T05:27:39;99056.00;;;-3.06;69.18
54900;BME280;40801;41.924;25.562;2024-01-15T05:30:05;99063.09;;;-3.07;69.46
54900;BME280;40801;41.924;25.562;2024-01-15T05:32:31;99058.06;;;-3.08;68.63
54900;BME280;40801;41.924;25.562;2024-01-15T05:34:57;99064.44;;;-3.16;69.24
54900;BME280;40801;41.924;25.562;2024-01-15T05:37:22;99059.31;;;-3.11;68.40
54900;BME280;40801;41.924;25.562;2024-01-15T05:39:47;99047.94;;;-3.12;68.69
54900;BME280;40801;41.924;25.562;2024-01-15T05:42:13;99041.31;;;-3.02;68.21
54900;BME280;40801;41.924;25.562;2024-01-15T05:44:38;99029.75;;;-3.01;68.49
54900;BME280;40801;41.924;25.562;2024-01-15T05:47:04;99024.91;;;-3.04;68.42
54900;BME280;40801;41.924;25.562;2024-01-15T05:49:29;99026.06;;;-3.00;68.37
54900;BME280;40801;41.924;25.562;2024-01-15T05:51:55;99025.50;;;-3.02;68.21
54900;BME280;40801;41.924;25.562;2024-01-15T05:54:20;99023.09;;;-3.04;68.53
54900;BME280;40801;41.924;25.562;2024-01-15T05:56:45;99022.28;;;-3.04;68.89
54900;BME280;40801;41.924;25.562;2024-01-15T05:59:11;99035.25;;;-3.03;68.76
54900;BME280;40801;41.924;25.562;2024-01-15T06:01:36;99033.31;;;-2.96;68.49
54900;BME280;40801;41.924;25.562;2024-01-15T06:04:02;99020.00;;;-2.89;68.26
54900;BME280;40801;41.924;25.562;2024-01-15T06:06:27;99015.22;;;-2.81;68.24
54900;BME280;40801;41.924;25.562;2024-01-15T06:08:52;99010.66;;;-2.73;67.66
54900;BME280;40801;41.924;25.562;2024-01-15T06:11:18;99002.16;;;-2.75;67.60
54900;BME280;40801;41.924;25.562;2024-01-15T06:13:43;99008.00;;;-2.73;67.87
54900;BME280;40801;41.924;25.562;2024-01-15T06:16:15;99007.53;;;-2.82;68.28
54900;BME280;40801;41.924;25.562;2024-01-15T06:18:41;99013.06;;;-2.84;68.44
54900;BME280;40801;41.924;25.562;2024-01-15T06:21:07;99017.41;;;-2.77;68.00
54900;BME280;40801;41.924;25.562;2024-01-15T06:23:33;99017.53;;;-2.61;66.96
54900;BME280;40801;41.924;25.562;2024-01-15T06:25:58;99017.22;;;-2.53;66.70
54900;BME280;40801;41.924;25.562;2024-01-15T06:28:23;99021.94;;;-2.55;67.30
54900;BME280;40801;41.924;25.562;2024-01-15T06:30:49;99018.13;;;-2.59;67.78
54900;BME280;40801;41.924;25.562;2024-01-15T06:33:14;99009.41;;;-2.47;67.23
54900;BME280;40801;41.924;25.562;2024-01-15T06:35:39;99011.72;;;-2.28;66.80
54900;BME280;40801;41.924;25.562;2024-01-15T06:38:05;99004.69;;;-2.10;66.12
54900;BME280;40801;41.924;25.562;2024-01-15T06:40:30;99007.78;;;-2.02;65.81
54900;BME280;40801;41.924;25.562;2024-01-15T06:42:56;99004.09;;;-1.89;66.02
54900;BME280;40801;41.924;25.562;2024-01-15T06:45:21;98997.63;;;-1.81;66.21
54900;BME280;40801;41.924;25.562;2024-01-15T06:47:46;98995.78;;;-1.69;66.24
54900;BME280;40801;41.924;25.562;2024-01-15T06:50:12;99000.22;;;-1.58;66.36
54900;BME280;40801;41.924;25.562;2024-01-15T06:52:37;99010.28;;;-1.43;65.62
54900;BME280;40801;41.924;25.562;2024-01-15T06:55:03;99023.56;;;-1.27;65.32
54900;BME280;40801;41.924;25.562;2024-01-15T06:57:28;99021.28;;;-1.06;64.72
54900;BME280;40801;41.924;25.562;2024-01-15T06:59:54;99028.50;;;-1.02;65.05
54900;BME280;40801;41.924;25.562;2024-01-15T07:02:19;99024.28;;;-0.86;64.39
54900;BME280;40801;41.924;25.562;2024-01-15T07:04:44;99022.53;;;-0.80;64.44
54900;BME280;40801;41.924;25.562;2024-01-15T07:07:10;99030.16;;;-0.67;64.80
54900;BME280;40801;41.924;25.562;2024-01-15T07:09:35;99022.53;;;-0.47;64.19
54900;BME280;40801;41.924;25.562;2024-01-15T07:12:00;99032.41;;;-0.25;63.71
54900;BME280;40801;41.924;25.562;2024-01-15T07:14:26;99022.13;;;-0.22;63.57
54900;BME280;40801;41.924;25.562;2024-01-15T07:16:51;99023.31;;;-0.29;63.82
54900;BME280;40801;41.924;25.562;2024-01-15T07:19:17;99013.28;;;-0.27;63.82
54900;BME280;40801;41.924;25.562;2024-01-15T07:21:42;99000.63;;;-0.04;63.71
54900;BME280;40801;41.924;25.562;2024-01-15T07:24:08;98999.72;;;0.08;63.48
54900;BME280;40801;41.924;25.562;2024-01-15T07:26:34;98999.28;;;0.16;62.91
54900;BME280;40801;41.924;25.562;2024-01-15T07:28:59;99002.88;;;0.05;63.17
54900;BME280;40801;41.924;25.562;2024-01-15T07:31:24;98999.84;;;0.18;63.14
54900;BME280;40801;41.924;25.562;2024-01-15T07:33:50;98997.69;;;0.58;62.94
54900;BME280;40801;41.924;25.562;2024-01-15T07:36:15;98995.00;;;1.12;62.32
54900;BME280;40801;41.924;25.562;2024-01-15T07:38:41;98995.09;;;1.54;61.86
54900;BME280;40801;41.924;25.562;2024-01-15T07:41:06;98985.34;;;1.70;60.60
54900;BME280;40801;41.924;25.562;2024-01-15T07:43:31;98982.13;;;2.05;60.81
54900;BME280;40801;41.924;25.562;2024-01-15T07:45:57;98979.34;;;2.47;60.38
54900;BME280;40801;41.924;25.562;2024-01-15T07:48:22;98980.53;;;2.97;59.96
54900;BME280;40801;41.924;25.562;2024-01-15T07:50:48;98969.84;;;3.58;58.80
54900;BME280;40801;41.924;25.562;2024-01-15T07:53:13;98969.84;;;3.63;56.96
54900;BME280;40801;41.924;25.562;2024-01-15T07:55:38;98964.00;;;3.46;56.76
54900;BME280;40801;41.924;25.562;2024-01-15T07:58:04;98965.59;;;3.42;57.19
54900;BME280;40801;41.924;25.562;2024-01-15T08:00:30;98962.69;;;3.38;57.37
54900;BME280;40801;41.924;25.562;2024-01-15T08:02:55;98968.16;;;4.03;57.33
54900;BME280;40801;41.924;25.562;2024-01-15T08:05:20;98970.47;;;4.35;56.91
54900;BME280;40801;41.924;25.562;2024-01-15T08:07:46;98969.03;;;4.53;56.33
54900;BME280;40801;41.924;25.562;2024-01-15T08:10:11;98977.59;;;4.94;55.96
54900;BME280;40801;41.924;25.562;2024-01-15T08:12:39;98969.38;;;5.19;55.25
54900;BME280;40801;41.924;25.562;2024-01-15T08:15:04;98974.25;;;5.12;54.42
54900;BME280;40801;41.924;25.562;2024-01-15T08:17:30;98978.06;;;5.06;54.64
54900;BME280;40801;41.924;25.562;2024-01-15T08:19:57;98970.91;;;4.96;54.78
54900;BME280;40801;41.924;25.562;2024-01-15T08:22:22;98980.41;;;4.74;55.13
54900;BME280;40801;41.924;25.562;2024-01-15T08:24:48;98981.25;;;4.64;56.49
54900;BME280;40801;41.924;25.562;2024-01-15T08:27:14;98993.06;;;4.53;55.99
54900;BME280;40801;41.924;25.562;2024-01-15T08:29:39;98990.34;;;4.58;56.44
54900;BME280;40801;41.924;25.562;2024-01-15T08:32:05;98984.84;;;4.93;55.93
54900;BME280;40801;41.924;25.562;2024-01-15T08:34:30;98980.16;;;5.09;56.06
54900;BME280;40801;41.924;25.562;2024-01-15T08:36:56;98966.78;;;5.43;55.79
54900;BME280;40801;41.924;25.562;2024-01-15T08:39:21;98974.88;;;5.96;55.51
54900;BME280;40801;41.924;25.562;2024-01-15T08:41:47;98963.94;;;6.78;54.81
54900;BME280;40801;41.924;25.562;2024-01-15T08:44:12;98965.59;;;7.44;53.81
54900;BME280;40801;41.924;25.562;2024-01-15T08:46:38;98954.28;;;7.93;52.40
54900;BME280;40801;41.924;25.562;2024-01-15T08:49:03;98946.91;;;8.26;51.92
54900;BME280;40801;41.924;25.562;2024-01-15T08:51:29;98958.69;;;8.80;50.69
54900;BME280;40801;41.924;25.562;2024-01-15T08:53:56;98942.69;;;9.42;49.50
54900;BME280;40801;41.924;25.562;2024-01-15T08:56:21;98942.00;;;9.28;48.66
54900;BME280;40801;41.924;25.562;2024-01-15T08:58:47;98947.41;;;9.37;47.82
54900;BME280;40801;41.924;25.562;2024-01-15T09:01:12;98938.09;;;8.76;47.57
54900;BME280;40801;41.924;25.562;2024-01-15T09:03:37;98945.13;;;8.49;48.93
54900;BME280;40801;41.924;25.562;2024-01-15T09:06:03;98946.78;;;8.59;48.69
54900;BME280;40801;41.924;25.562;2024-01-15T09:08:28;98948.34;;;9.32;48.39
54900;BME280;40801;41.924;25.562;2024-01-15T09:10:54;98938.94;;;8.98;46.70
54900;BME280;40801;41.924;25.562;2024-01-15T09:13:19;98938.22;;;8.71;46.98
54900;BME280;40801;41.924;25.562;2024-01-15T09:15:45;98941.22;;;8.69;47.71
54900;BME280;40801;41.924;25.562;2024-01-15T09:18:10;98934.72;;;9.06;47.33
54900;BME280;40801;41.924;25.562;2024-01-15T09:20:35;98920.56;;;9.45;47.17
54900;BME280;40801;41.924;25.562;2024-01-15T09:23:01;98910.28;;;9.25;45.48
54900;BME280;40801;41.924;25.562;2024-01-15T09:25:26;98923.50;;;9.13;45.96
54900;BME280;40801;41.924;25.562;2024-01-15T09:27:52;98917.03;;;9.14;45.59
54900;BME280;40801;41.924;25.562;2024-01-15T09:30:18;98926.94;;;8.46;46.74
54900;BME280;40801;41.924;25.562;2024-01-15T09:32:43;98927.63;;;7.97;47.54
54900;BME280;40801;41.924;25.562;2024-01-15T09:35:09;98919.28;;;7.98;48.16
54900;BME280;40801;41.924;25.562;2024-01-15T09:37:34;98912.09;;;7.53;49.67
54900;BME280;40801;41.924;25.562;2024-01-15T09:40:00;98903.00;;;7.49;49.56
54900;BME280;40801;41.924;25.562;2024-01-15T09:42:25;98896.09;;;7.89;49.94
54900;BME280;40801;41.924;25.562;2024-01-15T09:44:51;98893.13;;;9.35;48.68
54900;BME280;40801;41.924;25.562;2024-01-15T09:47:18;98877.88;;;10.09;46.72
54900;BME280;40801;41.924;25.562;2024-01-15T09:49:44;98881.66;;;10.74;45.55
54900;BME280;40801;41.924;25.562;2024-01-15T09:52:11;98883.84;;;10.80;44.15
54900;BME280;40801;41.924;25.562;2024-01-15T09:54:37;98879.88;;;10.52;44.30
54900;BME280;40801;41.924;25.562;2024-01-15T09:57:03;98872.03;;;10.16;44.24
54900;BME280;40801;41.924;25.562;2024-01-15T09:59:29;98873.78;;;9.63;45.03
54900;BME280;40801;41.924;25.562;2024-01-15T10:01:56;98865.16;;;9.53;45.01
54900;BME280;40801;41.924;25.562;2024-01-15T10:04:22;98869.19;;;9.02;45.70
54900;BME280;40801;41.924;25.562;2024-01-15T10:06:50;98862.88;;;8.84;45.55
54900;BME280;40801;41.924;25.562;2024-01-15T10:09:17;98862.88;;;8.84;46.12
54900;BME280;40801;41.924;25.562;2024-01-15T10:11:43;98869.66;;;8.59;46.86
54900;BME280;40801;41.924;25.562;2024-01-15T10:14:12;98871.69;;;8.98;46.40
54900;BME280;40801;41.924;25.562;2024-01-15T10:16:38;98860.34;;;9.32;45.34
54900;BME280;40801;41.924;25.562;2024-01-15T10:19:04;98865.38;;;8.81;45.88
54900;BME280;40801;41.924;25.562;2024-01-15T10:21:32;98854.41;;;9.22;44.94
54900;BME280;40801;41.924;25.562;2024-01-15T10:24:00;98849.75;;;9.05;45.62
54900;BME280;40801;41.924;25.562;2024-01-15T10:26:26;98840.25;;;9.39;45.51
54900;BME280;40801;41.924;25.562;2024-01-15T10:28:51;98829.34;;;9.83;44.90
54900;BME280;40801;41.924;25.562;2024-01-15T10:31:17;98819.16;;;9.72;44.39
54900;BME280;40801;41.924;25.562;2024-01-15T10:33:44;98825.72;;;9.97;43.51
54900;BME280;40801;41.924;25.562;2024-01-15T10:36:10;98828.47;;;9.57;44.24
54900;BME280;40801;41.924;25.562;2024-01-15T10:38:36;98830.91;;;9.36;44.15
54900;BME280;40801;41.924;25.562;2024-01-15T10:41:02;98826.69;;;8.90;44.87
54900;BME280;40801;41.924;25.562;2024-01-15T10:43:28;98816.78;;;8.68;45.08
54900;BME280;40801;41.924;25.562;2024-01-15T10:45:53;98806.38;;;8.53;45.92
54900;BME280;40801;41.924;25.562;2024-01-15T10:48:19;98805.63;;;8.25;45.79
54900;BME280;40801;41.924;25.562;2024-01-15T10:50:45;98806.44;;;8.26;46.52
54900;BME280;40801;41.924;25.562;2024-01-15T10:53:13;98798.88;;;8.28;46.71
54900;BME280;40801;41.924;25.562;2024-01-15T10:55:39;98788.06;;;8.19;46.63
54900;BME280;40801;41.924;25.562;2024-01-15T10:58:06;98781.88;;;8.19;46.40
54900;BME280;40801;41.924;25.562;2024-01-15T11:00:33;98769.09;;;8.02;46.67
54900;BME280;40801;41.924;25.562;2024-01-15T11:03:01;98756.94;;;8.18;46.51
54900;BME280;40801;41.924;25.562;2024-01-15T11:05:27;98758.56;;;8.28;46.23
54900;BME280;40801;41.924;25.562;2024-01-15T11:07:55;98770.59;;;8.44;46.15
54900;BME280;40801;41.924;25.562;2024-01-15T11:10:46;98756.06;;;8.45;46.54
54900;BME280;40801;41.924;25.562;2024-01-15T11:13:40;98732.03;;;9.02;45.79
54900;BME280;40801;41.924;25.562;2024-01-15T11:16:08;98732.88;;;9.20;45.68
54900;BME280;40801;41.924;25.562;2024-01-15T11:21:25;98746.88;;;8.99;45.35
54900;BME280;40801;41.924;25.562;2024-01-15T11:23:53;98752.69;;;8.93;44.84
54900;BME280;40801;41.924;25.562;2024-01-15T11:28:56;98746.03;;;8.59;46.05
54900;BME280;40801;41.924;25.562;2024-01-15T11:33:54;98754.66;;;8.12;46.95
54900;BME280;40801;41.924;25.562;2024-01-15T11:41:55;98745.19;;;7.78;47.05
54900;BME280;40801;41.924;25.562;2024-01-15T11:44:21;98742.56;;;8.00;47.51
54900;BME280;40801;41.924;25.562;2024-01-15T11:46:58;98733.69;;;8.89;46.64
54900;BME280;40801;41.924;25.562;2024-01-15T11:52:21;98742.13;;;9.45;45.19
54900;BME280;40801;41.924;25.562;2024-01-15T11:55:25;98735.69;;;9.72;43.14
54900;BME280;40801;41.924;25.562;2024-01-15T11:57:53;98728.44;;;9.89;44.05
54900;BME280;40801;41.924;25.562;2024-01-15T12:00:22;98720.69;;;9.22;44.72
54900;BME280;40801;41.924;25.562;2024-01-15T12:02:49;98718.03;;;9.31;44.59
54900;BME280;40801;41.924;25.562;2024-01-15T12:05:17;98714.91;;;9.46;44.18
54900;BME280;40801;41.924;25.562;2024-01-15T12:07:44;98705.50;;;9.18;44.38
54900;BME280;40801;41.924;25.562;2024-01-15T12:10:17;98705.19;;;9.19;44.10
54900;BME280;40801;41.924;25.562;2024-01-15T12:15:14;98704.44;;;9.27;43.64
54900;BME280;40801;41.924;25.562;2024-01-15T12:17:40;98697.88;;;9.11;43.56
54900;BME280;40801;41.924;25.562;2024-01-15T12:20:06;98695.09;;;8.85;43.93
54900;BME280;40801;41.924;25.562;2024-01-15T12:22:31;98685.56;;;8.48;44.38
54900;BME280;40801;41.924;25.562;2024-01-15T12:24:57;98686.53;;;8.52;44.31
54900;BME280;40801;41.924;25.562;2024-01-15T12:27:23;98674.50;;;8.27;43.82
54900;BME280;40801;41.924;25.562;2024-01-15T12:29:49;98676.41;;;8.04;44.57
54900;BME280;40801;41.924;25.562;2024-01-15T12:32:14;98669.75;;;8.02;44.62
54900;BME280;40801;41.924;25.562;2024-01-15T12:34:39;98658.97;;;7.93;44.20
54900;BME280;40801;41.924;25.562;2024-01-15T12:37:07;98658.88;;;8.07;44.11
54900;BME280;40801;41.924;25.562;2024-01-15T12:39:34;98651.75;;;8.02;44.58
54900;BME280;40801;41.924;25.562;2024-01-15T12:42:01;98656.28;;;7.93;44.54
54900;BME280;40801;41.924;25.562;2024-01-15T12:44:26;98659.56;;;7.90;45.35
54900;BME280;40801;41.924;25.562;2024-01-15T12:46:52;98654.72;;;7.78;45.66
54900;BME280;40801;41.924;25.562;2024-01-15T12:49:17;98655.72;;;7.83;45.70
54900;BME280;40801;41.924;25.562;2024-01-15T12:51:43;98655.41;;;7.62;45.62
54900;BME280;40801;41.924;25.562;2024-01-15T12:54:08;98644.13;;;7.37;46.51
54900;BME280;40801;41.924;25.562;2024-01-15T12:56:33;98645.38;;;7.54;46.47
54900;BME280;40801;41.924;25.562;2024-01-15T12:58:59;98657.41;;;7.56;45.94
54900;BME280;40801;41.924;25.562;2024-01-15T13:01:24;98645.09;;;7.55;46.32
54900;BME280;40801;41.924;25.562;2024-01-15T13:03:50;98647.38;;;7.48;45.82
54900;BME280;40801;41.924;25.562;2024-01-15T13:06:15;98648.28;;;7.43;45.50
54900;BME280;40801;41.924;25.562;2024-01-15T13:08:41;98651.38;;;7.37;46.01